Meteo Giornale » Osservazioni meteo El Salvador » San Salvador-Ilopango

ore: 12:00 - Osservazioni Meteo San Salvador-Ilopango
Lat. 13° 42' N Lon. 89° 7' W Alt. 616 metri s.l.m.

nuvoloso

30 °C

Nuvoloso

Temp. 24 Ore

0 °C

32 °C

Sud-Est

13 Km/h

Dew point 22 °C

Umidità 62 %

Visibilità  10 Km

Il sole sorge alle ore 05:44

Il sole tramonta alle ore 18:07

Data e Ora Cielo e Fenomeni T °C DP °C Um. % Pres. hPa Vis. km Vento km/h
Oggi h: 12:00 nuvoloso Nuvoloso 30 22 62 1017 10 SE 13
Oggi h: 11:50 nuvoloso Nuvoloso 0 0 76 1017 31 SE 13
Oggi h: 11:00 nuvoloso Nuvoloso 28 22 69 1018 10 S 7.4
Oggi h: 10:50 nuvoloso Nuvoloso 28 22 69 1018 10 S 7.4
Oggi h: 10:00 poco_nuvoloso Poco Nuvoloso 27 22 74 1018 10 N/NO 7.4
Oggi h: 09:50 poco_nuvoloso Poco Nuvoloso 27 22 74 1018 10 N/NO 7.4
Oggi h: 09:00 sereno Sereno 26 22 78 1018 10 N 5.5
Oggi h: 08:50 sereno Sereno 26 22 78 1018 10 N 5.5
Oggi h: 08:00 sereno Sereno 24 21 83 1018 10 N 5.5
Oggi h: 07:50 sereno Sereno 24 21 83 1018 10 N 5.5
Oggi h: 07:00 sereno Sereno 23 21 88 1018 10 N 3.7
Oggi h: 06:50 sereno Sereno 23 21 88 1018 10 N 3.7
Oggi h: 05:50 sereno Sereno 21 20 94 1017 10 N 0
Ieri h: 18:00 nuvoloso_temporali Temporale 24 20 78 1016 9 N/NO 18.5
Ieri h: 17:50 nuvoloso_temporali Temporale 24 20 78 1016 9 N/NO 18.5
Ieri h: 17:00 coperto_temporali Temporale 28 23 74 1013 10 S 16.7
Ieri h: 16:50 coperto_temporali Temporale 28 23 74 1013 10 S 16.7
Ieri h: 16:46 coperto_temporali Temporale 28 23 74 1013 10 S 20.3
Ieri h: 16:00 sereno Sereno 30 24 70 1013 10 S 16.7
Ieri h: 15:50 sereno Sereno 30 24 70 1013 10 S 16.7
Ieri h: 15:00 poco_nuvoloso Poco Nuvoloso 32 23 59 1013 10 S/SE 13
Ieri h: 14:50 poco_nuvoloso Poco Nuvoloso 32 23 59 1013 10 S/SE 13
Ieri h: 14:00 nuvoloso Nuvoloso 32 21 52 1014 10 N 3.7
Ieri h: 13:50 nuvoloso Nuvoloso 32 21 52 1014 10 N 3.7
Ieri h: 13:00 poco_nuvoloso Poco Nuvoloso 31 21 55 1015 10 N 5.5
Ieri h: 12:50 poco_nuvoloso Poco Nuvoloso 31 21 55 1015 10 N 5.5